sensor_id;sensor_type;location;lat;lon;timestamp;P1;P2;P0
77892;PMS5003;67087;50.094;14.338;2023-02-15T00:02:10;14;12;
77892;PMS5003;67087;50.094;14.338;2023-02-15T00:04:35;13;13;
77892;PMS5003;67087;50.094;14.338;2023-02-15T00:07:00;14;14;
77892;PMS5003;67087;50.094;14.338;2023-02-15T00:09:25;15;14;
77892;PMS5003;67087;50.094;14.338;2023-02-15T00:11:51;14;14;
77892;PMS5003;67087;50.094;14.338;2023-02-15T00:14:18;12;11;
77892;PMS5003;67087;50.094;14.338;2023-02-15T00:16:43;14;14;
77892;PMS5003;67087;50.094;14.338;2023-02-15T00:19:07;14;14;
77892;PMS5003;67087;50.094;14.338;2023-02-15T00:21:33;14;13;
77892;PMS5003;67087;50.094;14.338;2023-02-15T00:23:58;14;14;
77892;PMS5003;67087;50.094;14.338;2023-02-15T00:26:23;15;15;
77892;PMS5003;67087;50.094;14.338;2023-02-15T00:28:48;13;13;
77892;PMS5003;67087;50.094;14.338;2023-02-15T00:31:14;14;14;
77892;PMS5003;67087;50.094;14.338;2023-02-15T00:33:39;12;12;
77892;PMS5003;67087;50.094;14.338;2023-02-15T00:36:05;15;15;
77892;PMS5003;67087;50.094;14.338;2023-02-15T00:38:30;15;14;
77892;PMS5003;67087;50.094;14.338;2023-02-15T00:40:56;18;17;
77892;PMS5003;67087;50.094;14.338;2023-02-15T00:43:21;15;15;
77892;PMS5003;67087;50.094;14.338;2023-02-15T00:45:46;12;12;
77892;PMS5003;67087;50.094;14.338;2023-02-15T00:48:11;14;14;
77892;PMS5003;67087;50.094;14.338;2023-02-15T00:50:37;14;14;
77892;PMS5003;67087;50.094;14.338;2023-02-15T00:53:03;16;16;
77892;PMS5003;67087;50.094;14.338;2023-02-15T00:55:28;14;14;
77892;PMS5003;67087;50.094;14.338;2023-02-15T00:57:53;15;14;
77892;PMS5003;67087;50.094;14.338;2023-02-15T01:00:19;15;14;
77892;PMS5003;67087;50.094;14.338;2023-02-15T01:02:44;16;15;
77892;PMS5003;67087;50.094;14.338;2023-02-15T01:05:10;12;12;
77892;PMS5003;67087;50.094;14.338;2023-02-15T01:07:35;15;14;
77892;PMS5003;67087;50.094;14.338;2023-02-15T01:10:00;14;13;
77892;PMS5003;67087;50.094;14.338;2023-02-15T01:12:25;14;14;
77892;PMS5003;67087;50.094;14.338;2023-02-15T01:14:51;14;14;
77892;PMS5003;67087;50.094;14.338;2023-02-15T01:17:16;15;15;
77892;PMS5003;67087;50.094;14.338;2023-02-15T01:19:42;15;15;
77892;PMS5003;67087;50.094;14.338;2023-02-15T01:22:07;15;14;
77892;PMS5003;67087;50.094;14.338;2023-02-15T01:24:32;13;12;
77892;PMS5003;67087;50.094;14.338;2023-02-15T01:26:58;13;13;
77892;PMS5003;67087;50.094;14.338;2023-02-15T01:29:23;14;14;
77892;PMS5003;67087;50.094;14.338;2023-02-15T01:31:48;14;14;
77892;PMS5003;67087;50.094;14.338;2023-02-15T01:34:14;14;14;
77892;PMS5003;67087;50.094;14.338;2023-02-15T01:36:39;12;12;
77892;PMS5003;67087;50.094;14.338;2023-02-15T01:39:04;15;15;
77892;PMS5003;67087;50.094;14.338;2023-02-15T01:41:29;14;13;
77892;PMS5003;67087;50.094;14.338;2023-02-15T01:43:55;13;13;
77892;PMS5003;67087;50.094;14.338;2023-02-15T01:46:20;13;13;
77892;PMS5003;67087;50.094;14.338;2023-02-15T01:48:45;14;14;
77892;PMS5003;67087;50.094;14.338;2023-02-15T01:51:09;17;16;
77892;PMS5003;67087;50.094;14.338;2023-02-15T01:53:35;13;13;
77892;PMS5003;67087;50.094;14.338;2023-02-15T01:56:02;14;14;
77892;PMS5003;67087;50.094;14.338;2023-02-15T01:58:25;16;16;
77892;PMS5003;67087;50.094;14.338;2023-02-15T02:00:51;14;14;
77892;PMS5003;67087;50.094;14.338;2023-02-15T02:03:16;16;15;
77892;PMS5003;67087;50.094;14.338;2023-02-15T02:05:41;15;14;
77892;PMS5003;67087;50.094;14.338;2023-02-15T02:08:06;13;12;
77892;PMS5003;67087;50.094;14.338;2023-02-15T02:10:31;14;14;
77892;PMS5003;67087;50.094;14.338;2023-02-15T02:12:58;18;17;
77892;PMS5003;67087;50.094;14.338;2023-02-15T02:15:23;15;13;
77892;PMS5003;67087;50.094;14.338;2023-02-15T02:17:52;16;15;
77892;PMS5003;67087;50.094;14.338;2023-02-15T02:20:18;13;13;
77892;PMS5003;67087;50.094;14.338;2023-02-15T02:25:09;15;15;
77892;PMS5003;67087;50.094;14.338;2023-02-15T02:27:31;14;14;
77892;PMS5003;67087;50.094;14.338;2023-02-15T02:30:00;17;16;
77892;PMS5003;67087;50.094;14.338;2023-02-15T02:32:26;15;15;
77892;PMS5003;67087;50.094;14.338;2023-02-15T02:34:45;14;14;
77892;PMS5003;67087;50.094;14.338;2023-02-15T02:37:13;15;15;
77892;PMS5003;67087;50.094;14.338;2023-02-15T02:39:39;14;14;
77892;PMS5003;67087;50.094;14.338;2023-02-15T02:42:02;17;15;
77892;PMS5003;67087;50.094;14.338;2023-02-15T02:44:27;12;12;
77892;PMS5003;67087;50.094;14.338;2023-02-15T02:46:52;13;13;
77892;PMS5003;67087;50.094;14.338;2023-02-15T02:49:16;17;17;
77892;PMS5003;67087;50.094;14.338;2023-02-15T02:51:41;14;14;
77892;PMS5003;67087;50.094;14.338;2023-02-15T02:54:06;14;14;
77892;PMS5003;67087;50.094;14.338;2023-02-15T02:56:33;16;15;
77892;PMS5003;67087;50.094;14.338;2023-02-15T02:58:59;17;16;
77892;PMS5003;67087;50.094;14.338;2023-02-15T03:01:24;14;14;
77892;PMS5003;67087;50.094;14.338;2023-02-15T03:03:49;16;16;
77892;PMS5003;67087;50.094;14.338;2023-02-15T03:06:15;13;13;
77892;PMS5003;67087;50.094;14.338;2023-02-15T03:08:40;16;16;
77892;PMS5003;67087;50.094;14.338;2023-02-15T03:11:04;15;15;
77892;PMS5003;67087;50.094;14.338;2023-02-15T03:13:29;17;17;
77892;PMS5003;67087;50.094;14.338;2023-02-15T03:15:54;20;17;
77892;PMS5003;67087;50.094;14.338;2023-02-15T03:18:21;15;15;
77892;PMS5003;67087;50.094;14.338;2023-02-15T03:20:45;13;13;
77892;PMS5003;67087;50.094;14.338;2023-02-15T03:23:11;14;14;
77892;PMS5003;67087;50.094;14.338;2023-02-15T03:25:36;18;16;
77892;PMS5003;67087;50.094;14.338;2023-02-15T03:28:01;16;15;
77892;PMS5003;67087;50.094;14.338;2023-02-15T03:30:25;16;16;
77892;PMS5003;67087;50.094;14.338;2023-02-15T03:32:50;18;14;
77892;PMS5003;67087;50.094;14.338;2023-02-15T03:35:16;19;18;
77892;PMS5003;67087;50.094;14.338;2023-02-15T03:37:41;17;15;
77892;PMS5003;67087;50.094;14.338;2023-02-15T03:40:06;16;16;
77892;PMS5003;67087;50.094;14.338;2023-02-15T03:42:31;16;16;
77892;PMS5003;67087;50.094;14.338;2023-02-15T03:44:58;16;16;
77892;PMS5003;67087;50.094;14.338;2023-02-15T03:47:23;14;14;
77892;PMS5003;67087;50.094;14.338;2023-02-15T03:49:48;15;14;
77892;PMS5003;67087;50.094;14.338;2023-02-15T03:52:12;12;12;
77892;PMS5003;67087;50.094;14.338;2023-02-15T03:54:38;18;18;
77892;PMS5003;67087;50.094;14.338;2023-02-15T03:57:03;16;16;
77892;PMS5003;67087;50.094;14.338;2023-02-15T03:59:28;15;15;
77892;PMS5003;67087;50.094;14.338;2023-02-15T04:01:56;15;14;
77892;PMS5003;67087;50.094;14.338;2023-02-15T04:04:19;12;11;
77892;PMS5003;67087;50.094;14.338;2023-02-15T04:06:44;15;15;
77892;PMS5003;67087;50.094;14.338;2023-02-15T04:09:09;15;14;
77892;PMS5003;67087;50.094;14.338;2023-02-15T04:11:34;15;14;
77892;PMS5003;67087;50.094;14.338;2023-02-15T04:14:00;15;15;
77892;PMS5003;67087;50.094;14.338;2023-02-15T04:16:25;18;17;
77892;PMS5003;67087;50.094;14.338;2023-02-15T04:18:51;16;15;
77892;PMS5003;67087;50.094;14.338;2023-02-15T04:21:17;18;17;
77892;PMS5003;67087;50.094;14.338;2023-02-15T04:23:42;14;14;
77892;PMS5003;67087;50.094;14.338;2023-02-15T04:26:07;12;12;
77892;PMS5003;67087;50.094;14.338;2023-02-15T04:28:33;18;17;
77892;PMS5003;67087;50.094;14.338;2023-02-15T04:30:58;16;16;
77892;PMS5003;67087;50.094;14.338;2023-02-15T04:33:23;20;19;
77892;PMS5003;67087;50.094;14.338;2023-02-15T04:35:49;18;17;
77892;PMS5003;67087;50.094;14.338;2023-02-15T04:38:14;14;13;
77892;PMS5003;67087;50.094;14.338;2023-02-15T04:40:40;13;13;
77892;PMS5003;67087;50.094;14.338;2023-02-15T04:43:05;15;15;
77892;PMS5003;67087;50.094;14.338;2023-02-15T04:45:30;15;14;
77892;PMS5003;67087;50.094;14.338;2023-02-15T04:47:55;12;12;
77892;PMS5003;67087;50.094;14.338;2023-02-15T04:50:21;16;16;
77892;PMS5003;67087;50.094;14.338;2023-02-15T04:52:46;18;18;
77892;PMS5003;67087;50.094;14.338;2023-02-15T04:55:11;15;14;
77892;PMS5003;67087;50.094;14.338;2023-02-15T04:57:36;14;14;
77892;PMS5003;67087;50.094;14.338;2023-02-15T05:00:02;13;13;
77892;PMS5003;67087;50.094;14.338;2023-02-15T05:02:27;14;13;
77892;PMS5003;67087;50.094;14.338;2023-02-15T05:04:53;16;15;
77892;PMS5003;67087;50.094;14.338;2023-02-15T05:07:18;15;14;
77892;PMS5003;67087;50.094;14.338;2023-02-15T05:09:43;14;14;
77892;PMS5003;67087;50.094;14.338;2023-02-15T05:12:08;17;17;
77892;PMS5003;67087;50.094;14.338;2023-02-15T05:14:33;17;15;
77892;PMS5003;67087;50.094;14.338;2023-02-15T05:16:59;15;13;
77892;PMS5003;67087;50.094;14.338;2023-02-15T05:19:24;15;15;
77892;PMS5003;67087;50.094;14.338;2023-02-15T05:21:49;17;17;
77892;PMS5003;67087;50.094;14.338;2023-02-15T05:24:15;11;11;
77892;PMS5003;67087;50.094;14.338;2023-02-15T05:26:40;12;12;
77892;PMS5003;67087;50.094;14.338;2023-02-15T05:29:06;15;14;
77892;PMS5003;67087;50.094;14.338;2023-02-15T05:31:31;15;14;
77892;PMS5003;67087;50.094;14.338;2023-02-15T05:33:56;16;15;
77892;PMS5003;67087;50.094;14.338;2023-02-15T05:36:21;12;11;
77892;PMS5003;67087;50.094;14.338;2023-02-15T05:38:46;14;14;
77892;PMS5003;67087;50.094;14.338;2023-02-15T05:41:12;16;16;
77892;PMS5003;67087;50.094;14.338;2023-02-15T05:43:37;16;15;
77892;PMS5003;67087;50.094;14.338;2023-02-15T05:46:03;15;15;
77892;PMS5003;67087;50.094;14.338;2023-02-15T05:48:28;21;20;
77892;PMS5003;67087;50.094;14.338;2023-02-15T05:50:57;16;14;
77892;PMS5003;67087;50.094;14.338;2023-02-15T05:53:18;19;18;
77892;PMS5003;67087;50.094;14.338;2023-02-15T05:55:44;16;15;
77892;PMS5003;67087;50.094;14.338;2023-02-15T05:58:09;19;15;
77892;PMS5003;67087;50.094;14.338;2023-02-15T06:00:35;16;15;
77892;PMS5003;67087;50.094;14.338;2023-02-15T06:03:01;12;12;
77892;PMS5003;67087;50.094;14.338;2023-02-15T06:05:26;20;18;
77892;PMS5003;67087;50.094;14.338;2023-02-15T06:07:51;22;20;
77892;PMS5003;67087;50.094;14.338;2023-02-15T06:10:17;15;13;
77892;PMS5003;67087;50.094;14.338;2023-02-15T06:12:43;17;16;
77892;PMS5003;67087;50.094;14.338;2023-02-15T06:15:08;18;15;
77892;PMS5003;67087;50.094;14.338;2023-02-15T06:17:33;15;15;
77892;PMS5003;67087;50.094;14.338;2023-02-15T06:19:59;17;16;
77892;PMS5003;67087;50.094;14.338;2023-02-15T06:22:24;19;16;
77892;PMS5003;67087;50.094;14.338;2023-02-15T06:24:49;15;14;
77892;PMS5003;67087;50.094;14.338;2023-02-15T06:27:15;17;16;
77892;PMS5003;67087;50.094;14.338;2023-02-15T06:29:39;17;14;
77892;PMS5003;67087;50.094;14.338;2023-02-15T06:32:05;15;15;
77892;PMS5003;67087;50.094;14.338;2023-02-15T06:34:30;18;16;
77892;PMS5003;67087;50.094;14.338;2023-02-15T06:36:56;14;14;
77892;PMS5003;67087;50.094;14.338;2023-02-15T06:39:21;16;14;
77892;PMS5003;67087;50.094;14.338;2023-02-15T06:41:46;19;18;
77892;PMS5003;67087;50.094;14.338;2023-02-15T06:44:11;15;14;
77892;PMS5003;67087;50.094;14.338;2023-02-15T06:46:37;18;16;
77892;PMS5003;67087;50.094;14.338;2023-02-15T06:49:02;16;16;
77892;PMS5003;67087;50.094;14.338;2023-02-15T06:51:27;15;13;
77892;PMS5003;67087;50.094;14.338;2023-02-15T06:53:53;17;16;
77892;PMS5003;67087;50.094;14.338;2023-02-15T06:56:18;14;14;
77892;PMS5003;67087;50.094;14.338;2023-02-15T06:58:43;17;16;
77892;PMS5003;67087;50.094;14.338;2023-02-15T07:01:09;14;14;
77892;PMS5003;67087;50.094;14.338;2023-02-15T07:03:34;15;15;
77892;PMS5003;67087;50.094;14.338;2023-02-15T07:06:00;17;17;
77892;PMS5003;67087;50.094;14.338;2023-02-15T07:08:25;17;16;
77892;PMS5003;67087;50.094;14.338;2023-02-15T07:10:50;17;16;
77892;PMS5003;67087;50.094;14.338;2023-02-15T07:13:15;19;17;
77892;PMS5003;67087;50.094;14.338;2023-02-15T07:15:41;15;15;
77892;PMS5003;67087;50.094;14.338;2023-02-15T07:18:06;14;13;
77892;PMS5003;67087;50.094;14.338;2023-02-15T07:20:31;14;12;
77892;PMS5003;67087;50.094;14.338;2023-02-15T07:22:56;14;14;
77892;PMS5003;67087;50.094;14.338;2023-02-15T07:25:22;13;13;
77892;PMS5003;67087;50.094;14.338;2023-02-15T07:27:47;16;15;
77892;PMS5003;67087;50.094;14.338;2023-02-15T07:30:14;13;13;
77892;PMS5003;67087;50.094;14.338;2023-02-15T07:32:38;16;14;
77892;PMS5003;67087;50.094;14.338;2023-02-15T07:35:03;16;16;
77892;PMS5003;67087;50.094;14.338;2023-02-15T07:37:28;15;15;
77892;PMS5003;67087;50.094;14.338;2023-02-15T07:39:53;15;15;
77892;PMS5003;67087;50.094;14.338;2023-02-15T07:42:19;16;16;
77892;PMS5003;67087;50.094;14.338;2023-02-15T07:44:44;15;15;
77892;PMS5003;67087;50.094;14.338;2023-02-15T07:47:09;16;16;
77892;PMS5003;67087;50.094;14.338;2023-02-15T07:49:35;14;14;
77892;PMS5003;67087;50.094;14.338;2023-02-15T07:52:00;15;15;
77892;PMS5003;67087;50.094;14.338;2023-02-15T07:54:26;15;15;
77892;PMS5003;67087;50.094;14.338;2023-02-15T07:56:52;16;16;
77892;PMS5003;67087;50.094;14.338;2023-02-15T07:59:17;16;16;
77892;PMS5003;67087;50.094;14.338;2023-02-15T08:01:42;19;16;
77892;PMS5003;67087;50.094;14.338;2023-02-15T08:04:08;18;16;
77892;PMS5003;67087;50.094;14.338;2023-02-15T08:06:34;17;15;
77892;PMS5003;67087;50.094;14.338;2023-02-15T08:08:59;13;13;
77892;PMS5003;67087;50.094;14.338;2023-02-15T08:11:24;16;16;
77892;PMS5003;67087;50.094;14.338;2023-02-15T08:13:50;21;20;
77892;PMS5003;67087;50.094;14.338;2023-02-15T08:16:15;27;26;
77892;PMS5003;67087;50.094;14.338;2023-02-15T08:18:40;24;23;
77892;PMS5003;67087;50.094;14.338;2023-02-15T08:21:06;23;21;
77892;PMS5003;67087;50.094;14.338;2023-02-15T08:23:31;25;23;
77892;PMS5003;67087;50.094;14.338;2023-02-15T08:25:59;24;21;
77892;PMS5003;67087;50.094;14.338;2023-02-15T08:28:22;22;21;
77892;PMS5003;67087;50.094;14.338;2023-02-15T08:30:47;29;25;
77892;PMS5003;67087;50.094;14.338;2023-02-15T08:33:12;22;21;
77892;PMS5003;67087;50.094;14.338;2023-02-15T08:35:38;20;19;
77892;PMS5003;67087;50.094;14.338;2023-02-15T08:38:03;20;18;
77892;PMS5003;67087;50.094;14.338;2023-02-15T08:40:28;22;21;
77892;PMS5003;67087;50.094;14.338;2023-02-15T08:42:54;21;20;
77892;PMS5003;67087;50.094;14.338;2023-02-15T08:45:20;18;18;
77892;PMS5003;67087;50.094;14.338;2023-02-15T08:47:45;21;20;
77892;PMS5003;67087;50.094;14.338;2023-02-15T08:50:11;24;22;
77892;PMS5003;67087;50.094;14.338;2023-02-15T08:52:36;20;18;
77892;PMS5003;67087;50.094;14.338;2023-02-15T08:55:01;22;20;
77892;PMS5003;67087;50.094;14.338;2023-02-15T08:57:26;18;17;
77892;PMS5003;67087;50.094;14.338;2023-02-15T08:59:52;15;14;
77892;PMS5003;67087;50.094;14.338;2023-02-15T09:02:17;19;18;
77892;PMS5003;67087;50.094;14.338;2023-02-15T09:04:43;19;18;
77892;PMS5003;67087;50.094;14.338;2023-02-15T09:07:08;18;17;
77892;PMS5003;67087;50.094;14.338;2023-02-15T09:09:33;15;15;
77892;PMS5003;67087;50.094;14.338;2023-02-15T09:11:58;38;36;
77892;PMS5003;67087;50.094;14.338;2023-02-15T09:14:23;19;18;
77892;PMS5003;67087;50.094;14.338;2023-02-15T09:16:48;19;17;
77892;PMS5003;67087;50.094;14.338;2023-02-15T09:19:15;21;18;
77892;PMS5003;67087;50.094;14.338;2023-02-15T09:21:39;18;18;
77892;PMS5003;67087;50.094;14.338;2023-02-15T09:24:06;19;18;
77892;PMS5003;67087;50.094;14.338;2023-02-15T09:26:31;16;16;
77892;PMS5003;67087;50.094;14.338;2023-02-15T09:28:57;16;16;
77892;PMS5003;67087;50.094;14.338;2023-02-15T09:31:24;19;19;
77892;PMS5003;67087;50.094;14.338;2023-02-15T09:33:48;20;19;
77892;PMS5003;67087;50.094;14.338;2023-02-15T09:36:14;18;16;
77892;PMS5003;67087;50.094;14.338;2023-02-15T09:38:38;19;19;
77892;PMS5003;67087;50.094;14.338;2023-02-15T09:41:08;17;16;
77892;PMS5003;67087;50.094;14.338;2023-02-15T09:43:31;15;14;
77892;PMS5003;67087;50.094;14.338;2023-02-15T09:45:59;21;19;
77892;PMS5003;67087;50.094;14.338;2023-02-15T09:50:49;17;15;
77892;PMS5003;67087;50.094;14.338;2023-02-15T09:53:17;14;14;
77892;PMS5003;67087;50.094;14.338;2023-02-15T09:55:40;17;15;
77892;PMS5003;67087;50.094;14.338;2023-02-15T09:58:05;18;16;
77892;PMS5003;67087;50.094;14.338;2023-02-15T10:00:29;16;16;
77892;PMS5003;67087;50.094;14.338;2023-02-15T10:02:58;15;15;
77892;PMS5003;67087;50.094;14.338;2023-02-15T10:05:21;18;16;
77892;PMS5003;67087;50.094;14.338;2023-02-15T10:07:49;15;15;
77892;PMS5003;67087;50.094;14.338;2023-02-15T10:10:12;18;18;
77892;PMS5003;67087;50.094;14.338;2023-02-15T10:12:38;17;17;
77892;PMS5003;67087;50.094;14.338;2023-02-15T10:15:04;21;20;
77892;PMS5003;67087;50.094;14.338;2023-02-15T10:17:28;16;16;
77892;PMS5003;67087;50.094;14.338;2023-02-15T10:19:52;16;16;
77892;PMS5003;67087;50.094;14.338;2023-02-15T10:22:19;19;19;
77892;PMS5003;67087;50.094;14.338;2023-02-15T10:24:44;16;15;
77892;PMS5003;67087;50.094;14.338;2023-02-15T10:27:07;14;14;
77892;PMS5003;67087;50.094;14.338;2023-02-15T10:29:32;19;18;
77892;PMS5003;67087;50.094;14.338;2023-02-15T10:31:59;18;17;
77892;PMS5003;67087;50.094;14.338;2023-02-15T10:34:23;15;13;
77892;PMS5003;67087;50.094;14.338;2023-02-15T10:36:52;19;19;
77892;PMS5003;67087;50.094;14.338;2023-02-15T10:39:16;19;17;
77892;PMS5003;67087;50.094;14.338;2023-02-15T10:41:41;17;16;
77892;PMS5003;67087;50.094;14.338;2023-02-15T10:44:08;15;13;
77892;PMS5003;67087;50.094;14.338;2023-02-15T10:46:35;15;15;
77892;PMS5003;67087;50.094;14.338;2023-02-15T10:49:01;14;14;
77892;PMS5003;67087;50.094;14.338;2023-02-15T10:51:24;18;18;
77892;PMS5003;67087;50.094;14.338;2023-02-15T10:53:54;15;14;
77892;PMS5003;67087;50.094;14.338;2023-02-15T10:56:14;16;15;
77892;PMS5003;67087;50.094;14.338;2023-02-15T10:58:42;16;15;
77892;PMS5003;67087;50.094;14.338;2023-02-15T11:01:05;16;15;
77892;PMS5003;67087;50.094;14.338;2023-02-15T11:03:32;16;15;
77892;PMS5003;67087;50.094;14.338;2023-02-15T11:05:58;16;14;
77892;PMS5003;67087;50.094;14.338;2023-02-15T11:08:19;15;15;
77892;PMS5003;67087;50.094;14.338;2023-02-15T11:10:47;17;17;
77892;PMS5003;67087;50.094;14.338;2023-02-15T11:13:13;16;15;
77892;PMS5003;67087;50.094;14.338;2023-02-15T11:15:36;17;16;
77892;PMS5003;67087;50.094;14.338;2023-02-15T11:18:03;14;13;
77892;PMS5003;67087;50.094;14.338;2023-02-15T11:20:28;12;12;
77892;PMS5003;67087;50.094;14.338;2023-02-15T11:22:53;14;14;
77892;PMS5003;67087;50.094;14.338;2023-02-15T11:25:19;16;13;
77892;PMS5003;67087;50.094;14.338;2023-02-15T11:27:43;14;13;
77892;PMS5003;67087;50.094;14.338;2023-02-15T11:30:10;14;14;
77892;PMS5003;67087;50.094;14.338;2023-02-15T11:32:34;15;15;
77892;PMS5003;67087;50.094;14.338;2023-02-15T11:35:00;11;10;
77892;PMS5003;67087;50.094;14.338;2023-02-15T11:37:27;15;15;
77892;PMS5003;67087;50.094;14.338;2023-02-15T11:39:50;15;15;
77892;PMS5003;67087;50.094;14.338;2023-02-15T11:42:16;11;11;
77892;PMS5003;67087;50.094;14.338;2023-02-15T11:44:42;17;14;
77892;PMS5003;67087;50.094;14.338;2023-02-15T11:47:08;14;13;
77892;PMS5003;67087;50.094;14.338;2023-02-15T11:49:32;14;13;
77892;PMS5003;67087;50.094;14.338;2023-02-15T11:51:57;16;16;
77892;PMS5003;67087;50.094;14.338;2023-02-15T11:54:23;16;13;
77892;PMS5003;67087;50.094;14.338;2023-02-15T11:56:47;14;14;
77892;PMS5003;67087;50.094;14.338;2023-02-15T11:59:14;14;13;
77892;PMS5003;67087;50.094;14.338;2023-02-15T12:01:39;13;12;
77892;PMS5003;67087;50.094;14.338;2023-02-15T12:04:04;15;14;
77892;PMS5003;67087;50.094;14.338;2023-02-15T12:06:29;16;15;
77892;PMS5003;67087;50.094;14.338;2023-02-15T12:08:57;13;13;
77892;PMS5003;67087;50.094;14.338;2023-02-15T12:11:20;12;12;
77892;PMS5003;67087;50.094;14.338;2023-02-15T12:13:55;13;13;
77892;PMS5003;67087;50.094;14.338;2023-02-15T12:16:09;15;15;
77892;PMS5003;67087;50.094;14.338;2023-02-15T12:18:35;13;12;
77892;PMS5003;67087;50.094;14.338;2023-02-15T12:20:59;14;14;
77892;PMS5003;67087;50.094;14.338;2023-02-15T12:23:25;15;15;
77892;PMS5003;67087;50.094;14.338;2023-02-15T12:25:51;16;15;
77892;PMS5003;67087;50.094;14.338;2023-02-15T12:28:20;14;14;
77892;PMS5003;67087;50.094;14.338;2023-02-15T12:30:41;13;12;
77892;PMS5003;67087;50.094;14.338;2023-02-15T12:33:13;12;12;
77892;PMS5003;67087;50.094;14.338;2023-02-15T12:35:33;15;15;
77892;PMS5003;67087;50.094;14.338;2023-02-15T12:38:00;18;14;
77892;PMS5003;67087;50.094;14.338;2023-02-15T12:40:24;16;16;
77892;PMS5003;67087;50.094;14.338;2023-02-15T12:42:49;14;13;
77892;PMS5003;67087;50.094;14.338;2023-02-15T12:47:40;15;14;
77892;PMS5003;67087;50.094;14.338;2023-02-15T12:50:08;15;14;
77892;PMS5003;67087;50.094;14.338;2023-02-15T12:52:31;15;14;
77892;PMS5003;67087;50.094;14.338;2023-02-15T12:54:58;15;14;
77892;PMS5003;67087;50.094;14.338;2023-02-15T12:57:25;14;13;
77892;PMS5003;67087;50.094;14.338;2023-02-15T12:59:49;14;14;
77892;PMS5003;67087;50.094;14.338;2023-02-15T13:02:14;17;16;
77892;PMS5003;67087;50.094;14.338;2023-02-15T13:04:46;14;14;
77892;PMS5003;67087;50.094;14.338;2023-02-15T13:07:04;13;13;
77892;PMS5003;67087;50.094;14.338;2023-02-15T13:09:35;16;15;
77892;PMS5003;67087;50.094;14.338;2023-02-15T13:11:54;17;14;
77892;PMS5003;67087;50.094;14.338;2023-02-15T13:14:21;15;14;
77892;PMS5003;67087;50.094;14.338;2023-02-15T13:16:47;13;13;
77892;PMS5003;67087;50.094;14.338;2023-02-15T13:19:12;13;13;
77892;PMS5003;67087;50.094;14.338;2023-02-15T13:21:37;14;14;
77892;PMS5003;67087;50.094;14.338;2023-02-15T13:24:04;12;12;
77892;PMS5003;67087;50.094;14.338;2023-02-15T13:26:29;20;18;
77892;PMS5003;67087;50.094;14.338;2023-02-15T13:28:54;13;12;
77892;PMS5003;67087;50.094;14.338;2023-02-15T13:31:19;14;13;
77892;PMS5003;67087;50.094;14.338;2023-02-15T13:33:44;12;11;
77892;PMS5003;67087;50.094;14.338;2023-02-15T13:36:09;14;13;
77892;PMS5003;67087;50.094;14.338;2023-02-15T13:41:00;17;15;
77892;PMS5003;67087;50.094;14.338;2023-02-15T13:43:27;13;12;
77892;PMS5003;67087;50.094;14.338;2023-02-15T13:45:54;14;13;
77892;PMS5003;67087;50.094;14.338;2023-02-15T13:48:15;15;14;
77892;PMS5003;67087;50.094;14.338;2023-02-15T13:50:49;15;14;
77892;PMS5003;67087;50.094;14.338;2023-02-15T13:53:10;13;12;
77892;PMS5003;67087;50.094;14.338;2023-02-15T13:55:33;18;16;
77892;PMS5003;67087;50.094;14.338;2023-02-15T13:58:02;18;17;
77892;PMS5003;67087;50.094;14.338;2023-02-15T14:00:21;16;14;
77892;PMS5003;67087;50.094;14.338;2023-02-15T14:02:56;18;16;
77892;PMS5003;67087;50.094;14.338;2023-02-15T14:05:15;12;12;
77892;PMS5003;67087;50.094;14.338;2023-02-15T14:07:43;14;13;
77892;PMS5003;67087;50.094;14.338;2023-02-15T14:10:05;18;15;
77892;PMS5003;67087;50.094;14.338;2023-02-15T14:12:31;16;16;
77892;PMS5003;67087;50.094;14.338;2023-02-15T14:17:20;19;17;
77892;PMS5003;67087;50.094;14.338;2023-02-15T14:19:44;19;19;
77892;PMS5003;67087;50.094;14.338;2023-02-15T14:22:11;28;20;
77892;PMS5003;67087;50.094;14.338;2023-02-15T14:24:36;20;20;
77892;PMS5003;67087;50.094;14.338;2023-02-15T14:27:04;18;17;
77892;PMS5003;67087;50.094;14.338;2023-02-15T14:29:27;20;17;
77892;PMS5003;67087;50.094;14.338;2023-02-15T14:31:52;21;20;
77892;PMS5003;67087;50.094;14.338;2023-02-15T14:34:18;17;17;
77892;PMS5003;67087;50.094;14.338;2023-02-15T14:36:42;18;18;
77892;PMS5003;67087;50.094;14.338;2023-02-15T14:39:11;18;18;
77892;PMS5003;67087;50.094;14.338;2023-02-15T14:41:36;22;18;
77892;PMS5003;67087;50.094;14.338;2023-02-15T14:44:00;19;18;
77892;PMS5003;67087;50.094;14.338;2023-02-15T14:46:25;26;25;
77892;PMS5003;67087;50.094;14.338;2023-02-15T14:48:50;34;29;
77892;PMS5003;67087;50.094;14.338;2023-02-15T14:53:40;32;30;
77892;PMS5003;67087;50.094;14.338;2023-02-15T14:56:12;26;26;
77892;PMS5003;67087;50.094;14.338;2023-02-15T14:58:31;26;25;
77892;PMS5003;67087;50.094;14.338;2023-02-15T15:03:23;23;23;
77892;PMS5003;67087;50.094;14.338;2023-02-15T15:05:49;26;23;
77892;PMS5003;67087;50.094;14.338;2023-02-15T15:10:39;23;22;
77892;PMS5003;67087;50.094;14.338;2023-02-15T15:15:34;26;26;
77892;PMS5003;67087;50.094;14.338;2023-02-15T15:17:57;25;25;
77892;PMS5003;67087;50.094;14.338;2023-02-15T15:22:47;27;26;
77892;PMS5003;67087;50.094;14.338;2023-02-15T15:27:39;19;19;
77892;PMS5003;67087;50.094;14.338;2023-02-15T15:30:07;23;23;
77892;PMS5003;67087;50.094;14.338;2023-02-15T15:32:28;20;20;
77892;PMS5003;67087;50.094;14.338;2023-02-15T15:34:59;19;19;
77892;PMS5003;67087;50.094;14.338;2023-02-15T15:37:30;19;18;
77892;PMS5003;67087;50.094;14.338;2023-02-15T15:42:12;17;17;
77892;PMS5003;67087;50.094;14.338;2023-02-15T15:47:05;19;19;
77892;PMS5003;67087;50.094;14.338;2023-02-15T15:49:28;20;19;
77892;PMS5003;67087;50.094;14.338;2023-02-15T15:51:52;23;22;
77892;PMS5003;67087;50.094;14.338;2023-02-15T15:54:19;19;18;
77892;PMS5003;67087;50.094;14.338;2023-02-15T15:56:44;18;18;
77892;PMS5003;67087;50.094;14.338;2023-02-15T15:59:12;19;19;
77892;PMS5003;67087;50.094;14.338;2023-02-15T16:01:35;23;21;
77892;PMS5003;67087;50.094;14.338;2023-02-15T16:04:00;20;20;
77892;PMS5003;67087;50.094;14.338;2023-02-15T16:06:26;24;22;
77892;PMS5003;67087;50.094;14.338;2023-02-15T16:08:50;22;21;
77892;PMS5003;67087;50.094;14.338;2023-02-15T16:11:16;24;22;
77892;PMS5003;67087;50.094;14.338;2023-02-15T16:13:41;20;20;
77892;PMS5003;67087;50.094;14.338;2023-02-15T16:16:11;34;33;
77892;PMS5003;67087;50.094;14.338;2023-02-15T16:18:31;31;30;
77892;PMS5003;67087;50.094;14.338;2023-02-15T16:20:58;24;24;